sensor_id;sensor_type;location;lat;lon;timestamp;temperature;humidity
43047;DHT22;28672;49.358;8.780;2022-10-31T00:02:19;9.30;99.90
43047;DHT22;28672;49.358;8.780;2022-10-31T00:04:45;9.30;99.90
43047;DHT22;28672;49.358;8.780;2022-10-31T00:07:11;9.30;99.90
43047;DHT22;28672;49.358;8.780;2022-10-31T00:09:36;9.30;99.90
43047;DHT22;28672;49.358;8.780;2022-10-31T00:12:02;9.30;99.90
43047;DHT22;28672;49.358;8.780;2022-10-31T00:14:27;9.20;99.90
43047;DHT22;28672;49.358;8.780;2022-10-31T00:16:53;9.20;99.90
43047;DHT22;28672;49.358;8.780;2022-10-31T00:19:18;9.20;99.90
43047;DHT22;28672;49.358;8.780;2022-10-31T00:21:44;9.20;99.90
43047;DHT22;28672;49.358;8.780;2022-10-31T00:24:10;9.20;99.90
43047;DHT22;28672;49.358;8.780;2022-10-31T00:26:35;9.10;99.90
43047;DHT22;28672;49.358;8.780;2022-10-31T00:29:01;9.10;99.90
43047;DHT22;28672;49.358;8.780;2022-10-31T00:31:27;9.10;99.90
43047;DHT22;28672;49.358;8.780;2022-10-31T00:33:52;9.00;99.90
43047;DHT22;28672;49.358;8.780;2022-10-31T00:36:19;9.00;99.90
43047;DHT22;28672;49.358;8.780;2022-10-31T00:38:46;9.00;99.90
43047;DHT22;28672;49.358;8.780;2022-10-31T00:41:13;8.90;99.90
43047;DHT22;28672;49.358;8.780;2022-10-31T00:43:39;9.00;99.90
43047;DHT22;28672;49.358;8.780;2022-10-31T00:46:04;9.00;99.90
43047;DHT22;28672;49.358;8.780;2022-10-31T00:48:30;9.00;99.90
43047;DHT22;28672;49.358;8.780;2022-10-31T00:50:56;9.00;99.90
43047;DHT22;28672;49.358;8.780;2022-10-31T00:53:22;9.00;99.90
43047;DHT22;28672;49.358;8.780;2022-10-31T00:55:48;9.00;99.90
43047;DHT22;28672;49.358;8.780;2022-10-31T00:58:13;9.00;99.90
43047;DHT22;28672;49.358;8.780;2022-10-31T01:00:39;9.00;99.90
43047;DHT22;28672;49.358;8.780;2022-10-31T01:03:05;9.00;99.90
43047;DHT22;28672;49.358;8.780;2022-10-31T01:05:30;9.00;99.90
43047;DHT22;28672;49.358;8.780;2022-10-31T01:07:56;9.00;99.90
43047;DHT22;28672;49.358;8.780;2022-10-31T01:10:22;8.90;99.90
43047;DHT22;28672;49.358;8.780;2022-10-31T01:12:49;8.90;99.90
43047;DHT22;28672;49.358;8.780;2022-10-31T01:15:20;8.90;99.90
43047;DHT22;28672;49.358;8.780;2022-10-31T01:17:46;8.90;99.90
43047;DHT22;28672;49.358;8.780;2022-10-31T01:20:13;8.80;99.90
43047;DHT22;28672;49.358;8.780;2022-10-31T01:22:39;8.80;99.90
43047;DHT22;28672;49.358;8.780;2022-10-31T01:25:06;8.80;99.90
43047;DHT22;28672;49.358;8.780;2022-10-31T01:27:32;8.80;99.90
43047;DHT22;28672;49.358;8.780;2022-10-31T01:29:57;8.70;99.90
43047;DHT22;28672;49.358;8.780;2022-10-31T01:32:23;8.70;99.90
43047;DHT22;28672;49.358;8.780;2022-10-31T01:34:49;8.70;99.90
43047;DHT22;28672;49.358;8.780;2022-10-31T01:37:14;8.60;99.90
43047;DHT22;28672;49.358;8.780;2022-10-31T01:39:40;8.60;99.90
43047;DHT22;28672;49.358;8.780;2022-10-31T01:42:05;8.60;99.90
43047;DHT22;28672;49.358;8.780;2022-10-31T01:47:01;8.60;99.90
43047;DHT22;28672;49.358;8.780;2022-10-31T01:52:02;8.50;99.90
43047;DHT22;28672;49.358;8.780;2022-10-31T01:54:33;8.50;99.90
43047;DHT22;28672;49.358;8.780;2022-10-31T01:57:01;8.50;99.90
43047;DHT22;28672;49.358;8.780;2022-10-31T01:59:30;8.50;99.90
43047;DHT22;28672;49.358;8.780;2022-10-31T02:01:57;8.50;99.90
43047;DHT22;28672;49.358;8.780;2022-10-31T02:04:24;8.50;99.90
43047;DHT22;28672;49.358;8.780;2022-10-31T02:07:03;8.50;99.90
43047;DHT22;28672;49.358;8.780;2022-10-31T02:09:31;8.50;99.90
43047;DHT22;28672;49.358;8.780;2022-10-31T02:11:59;8.50;99.90
43047;DHT22;28672;49.358;8.780;2022-10-31T02:14:27;8.50;99.90
43047;DHT22;28672;49.358;8.780;2022-10-31T02:16:56;8.50;99.90
43047;DHT22;28672;49.358;8.780;2022-10-31T02:19:43;8.50;99.90
43047;DHT22;28672;49.358;8.780;2022-10-31T02:28:18;8.50;99.90
43047;DHT22;28672;49.358;8.780;2022-10-31T02:31:05;8.40;99.90
43047;DHT22;28672;49.358;8.780;2022-10-31T02:33:43;8.40;99.90
43047;DHT22;28672;49.358;8.780;2022-10-31T02:36:27;8.40;99.90
43047;DHT22;28672;49.358;8.780;2022-10-31T02:39:17;8.40;99.90
43047;DHT22;28672;49.358;8.780;2022-10-31T02:42:21;8.40;99.90
43047;DHT22;28672;49.358;8.780;2022-10-31T02:47:28;8.40;99.90
43047;DHT22;28672;49.358;8.780;2022-10-31T02:50:03;8.30;99.90
43047;DHT22;28672;49.358;8.780;2022-10-31T02:52:31;8.30;99.90
43047;DHT22;28672;49.358;8.780;2022-10-31T02:54:57;8.30;99.90
43047;DHT22;28672;49.358;8.780;2022-10-31T02:57:26;8.40;99.90
43047;DHT22;28672;49.358;8.780;2022-10-31T03:00:04;8.40;99.90
43047;DHT22;28672;49.358;8.780;2022-10-31T03:05:27;8.40;99.90
43047;DHT22;28672;49.358;8.780;2022-10-31T03:08:03;8.40;99.90
43047;DHT22;28672;49.358;8.780;2022-10-31T03:10:46;8.40;99.90
43047;DHT22;28672;49.358;8.780;2022-10-31T03:15:49;8.30;99.90
43047;DHT22;28672;49.358;8.780;2022-10-31T03:18:43;8.30;99.90
43047;DHT22;28672;49.358;8.780;2022-10-31T03:21:14;8.30;99.90
43047;DHT22;28672;49.358;8.780;2022-10-31T03:23:44;8.20;99.90
43047;DHT22;28672;49.358;8.780;2022-10-31T03:26:12;8.30;99.90
43047;DHT22;28672;49.358;8.780;2022-10-31T03:28:44;8.30;99.90
43047;DHT22;28672;49.358;8.780;2022-10-31T03:31:12;8.20;99.90
43047;DHT22;28672;49.358;8.780;2022-10-31T03:33:42;8.20;99.90
43047;DHT22;28672;49.358;8.780;2022-10-31T03:36:10;8.30;99.90
43047;DHT22;28672;49.358;8.780;2022-10-31T03:38:38;8.30;99.90
43047;DHT22;28672;49.358;8.780;2022-10-31T03:41:06;8.20;99.90
43047;DHT22;28672;49.358;8.780;2022-10-31T03:43:38;8.20;99.90
43047;DHT22;28672;49.358;8.780;2022-10-31T03:46:06;8.20;99.90
43047;DHT22;28672;49.358;8.780;2022-10-31T03:48:32;8.20;99.90
43047;DHT22;28672;49.358;8.780;2022-10-31T03:51:11;8.20;99.90
43047;DHT22;28672;49.358;8.780;2022-10-31T03:53:52;8.20;99.90
43047;DHT22;28672;49.358;8.780;2022-10-31T03:59:10;8.10;99.90
43047;DHT22;28672;49.358;8.780;2022-10-31T04:01:42;8.10;99.90
43047;DHT22;28672;49.358;8.780;2022-10-31T04:04:10;8.10;99.90
43047;DHT22;28672;49.358;8.780;2022-10-31T04:06:38;8.10;99.90
43047;DHT22;28672;49.358;8.780;2022-10-31T04:09:06;8.10;99.90
43047;DHT22;28672;49.358;8.780;2022-10-31T04:11:37;8.10;99.90
43047;DHT22;28672;49.358;8.780;2022-10-31T04:14:04;8.00;99.90
43047;DHT22;28672;49.358;8.780;2022-10-31T04:16:31;7.90;99.90
43047;DHT22;28672;49.358;8.780;2022-10-31T04:18:57;7.90;99.90
43047;DHT22;28672;49.358;8.780;2022-10-31T04:21:30;7.90;99.90
43047;DHT22;28672;49.358;8.780;2022-10-31T04:23:56;7.90;99.90
43047;DHT22;28672;49.358;8.780;2022-10-31T04:26:22;7.90;99.90
43047;DHT22;28672;49.358;8.780;2022-10-31T04:28:48;7.90;99.90
43047;DHT22;28672;49.358;8.780;2022-10-31T04:31:14;7.90;99.90
43047;DHT22;28672;49.358;8.780;2022-10-31T04:33:40;7.90;99.90
43047;DHT22;28672;49.358;8.780;2022-10-31T04:36:09;7.90;99.90
43047;DHT22;28672;49.358;8.780;2022-10-31T04:38:35;7.90;99.90
43047;DHT22;28672;49.358;8.780;2022-10-31T04:41:00;7.90;99.90
43047;DHT22;28672;49.358;8.780;2022-10-31T04:43:26;7.80;99.90
43047;DHT22;28672;49.358;8.780;2022-10-31T04:45:52;7.80;99.90
43047;DHT22;28672;49.358;8.780;2022-10-31T04:48:17;7.80;99.90
43047;DHT22;28672;49.358;8.780;2022-10-31T04:50:43;7.80;99.90
43047;DHT22;28672;49.358;8.780;2022-10-31T04:53:08;7.80;99.90
43047;DHT22;28672;49.358;8.780;2022-10-31T04:55:35;7.80;99.90
43047;DHT22;28672;49.358;8.780;2022-10-31T04:58:01;7.80;99.90
43047;DHT22;28672;49.358;8.780;2022-10-31T05:00:27;7.80;99.90
43047;DHT22;28672;49.358;8.780;2022-10-31T05:02:55;7.70;99.90
43047;DHT22;28672;49.358;8.780;2022-10-31T05:05:23;7.70;99.90
43047;DHT22;28672;49.358;8.780;2022-10-31T05:07:50;7.70;99.90
43047;DHT22;28672;49.358;8.780;2022-10-31T05:10:34;7.70;99.90
43047;DHT22;28672;49.358;8.780;2022-10-31T05:13:01;7.70;99.90
43047;DHT22;28672;49.358;8.780;2022-10-31T05:15:28;7.70;99.90
43047;DHT22;28672;49.358;8.780;2022-10-31T05:17:55;7.70;99.90
43047;DHT22;28672;49.358;8.780;2022-10-31T05:20:23;7.60;99.90
43047;DHT22;28672;49.358;8.780;2022-10-31T05:22:51;7.60;99.90
43047;DHT22;28672;49.358;8.780;2022-10-31T05:25:18;7.70;99.90
43047;DHT22;28672;49.358;8.780;2022-10-31T05:27:45;7.60;99.90
43047;DHT22;28672;49.358;8.780;2022-10-31T05:30:13;7.60;99.90
43047;DHT22;28672;49.358;8.780;2022-10-31T05:32:44;7.60;99.90
43047;DHT22;28672;49.358;8.780;2022-10-31T05:35:10;7.60;99.90
43047;DHT22;28672;49.358;8.780;2022-10-31T05:37:37;7.60;99.90
43047;DHT22;28672;49.358;8.780;2022-10-31T05:40:04;7.60;99.90
43047;DHT22;28672;49.358;8.780;2022-10-31T05:42:30;7.60;99.90
43047;DHT22;28672;49.358;8.780;2022-10-31T05:44:55;7.50;99.90
43047;DHT22;28672;49.358;8.780;2022-10-31T05:47:21;7.50;99.90
43047;DHT22;28672;49.358;8.780;2022-10-31T05:49:46;7.40;99.90
43047;DHT22;28672;49.358;8.780;2022-10-31T05:52:12;7.40;99.90
43047;DHT22;28672;49.358;8.780;2022-10-31T05:54:38;7.40;99.90
43047;DHT22;28672;49.358;8.780;2022-10-31T05:57:03;7.40;99.90
43047;DHT22;28672;49.358;8.780;2022-10-31T05:59:29;7.50;99.90
43047;DHT22;28672;49.358;8.780;2022-10-31T06:01:54;7.50;99.90
43047;DHT22;28672;49.358;8.780;2022-10-31T06:04:20;7.50;99.90
43047;DHT22;28672;49.358;8.780;2022-10-31T06:06:45;7.40;99.90
43047;DHT22;28672;49.358;8.780;2022-10-31T06:09:11;7.40;99.90
43047;DHT22;28672;49.358;8.780;2022-10-31T06:11:37;7.40;99.90
43047;DHT22;28672;49.358;8.780;2022-10-31T06:14:03;7.40;99.90
43047;DHT22;28672;49.358;8.780;2022-10-31T06:16:28;7.40;99.90
43047;DHT22;28672;49.358;8.780;2022-10-31T06:18:54;7.30;99.90
43047;DHT22;28672;49.358;8.780;2022-10-31T06:21:20;7.30;99.90
43047;DHT22;28672;49.358;8.780;2022-10-31T06:23:45;7.30;99.90
43047;DHT22;28672;49.358;8.780;2022-10-31T06:26:11;7.30;99.90
43047;DHT22;28672;49.358;8.780;2022-10-31T06:28:36;7.40;99.90
43047;DHT22;28672;49.358;8.780;2022-10-31T06:31:02;7.40;99.90
43047;DHT22;28672;49.358;8.780;2022-10-31T06:33:27;7.40;99.90
43047;DHT22;28672;49.358;8.780;2022-10-31T06:35:53;7.40;99.90
43047;DHT22;28672;49.358;8.780;2022-10-31T06:38:18;7.40;99.90
43047;DHT22;28672;49.358;8.780;2022-10-31T06:40:44;7.40;99.90
43047;DHT22;28672;49.358;8.780;2022-10-31T06:43:09;7.50;99.90
43047;DHT22;28672;49.358;8.780;2022-10-31T06:45:37;7.50;99.90
43047;DHT22;28672;49.358;8.780;2022-10-31T06:48:03;7.60;99.90
43047;DHT22;28672;49.358;8.780;2022-10-31T06:50:28;7.70;99.90
43047;DHT22;28672;49.358;8.780;2022-10-31T06:52:56;7.70;99.90
43047;DHT22;28672;49.358;8.780;2022-10-31T06:55:23;7.70;99.90
43047;DHT22;28672;49.358;8.780;2022-10-31T06:57:58;7.80;99.90
43047;DHT22;28672;49.358;8.780;2022-10-31T07:00:26;7.80;99.90
43047;DHT22;28672;49.358;8.780;2022-10-31T07:03:02;7.90;99.90
43047;DHT22;28672;49.358;8.780;2022-10-31T07:05:28;8.00;99.90
43047;DHT22;28672;49.358;8.780;2022-10-31T07:07:59;8.00;99.90
43047;DHT22;28672;49.358;8.780;2022-10-31T07:10:27;8.10;99.90
43047;DHT22;28672;49.358;8.780;2022-10-31T07:12:57;8.20;99.90
43047;DHT22;28672;49.358;8.780;2022-10-31T07:15:24;8.40;99.90
43047;DHT22;28672;49.358;8.780;2022-10-31T07:17:50;8.50;99.90
43047;DHT22;28672;49.358;8.780;2022-10-31T07:20:16;8.60;99.90
43047;DHT22;28672;49.358;8.780;2022-10-31T07:22:42;8.80;99.90
43047;DHT22;28672;49.358;8.780;2022-10-31T07:25:08;9.10;99.90
43047;DHT22;28672;49.358;8.780;2022-10-31T07:27:38;9.20;99.90
43047;DHT22;28672;49.358;8.780;2022-10-31T07:30:05;9.20;99.90
43047;DHT22;28672;49.358;8.780;2022-10-31T07:32:41;9.30;99.90
43047;DHT22;28672;49.358;8.780;2022-10-31T07:35:13;9.40;99.90
43047;DHT22;28672;49.358;8.780;2022-10-31T07:37:39;9.40;99.90
43047;DHT22;28672;49.358;8.780;2022-10-31T07:40:06;9.60;99.90
43047;DHT22;28672;49.358;8.780;2022-10-31T07:42:39;9.70;99.90
43047;DHT22;28672;49.358;8.780;2022-10-31T07:45:06;9.90;99.90
43047;DHT22;28672;49.358;8.780;2022-10-31T07:47:50;10.10;99.90
43047;DHT22;28672;49.358;8.780;2022-10-31T07:50:24;10.20;99.90
43047;DHT22;28672;49.358;8.780;2022-10-31T07:53:01;10.30;99.90
43047;DHT22;28672;49.358;8.780;2022-10-31T07:55:28;10.40;99.90
43047;DHT22;28672;49.358;8.780;2022-10-31T07:58:04;10.50;99.90
43047;DHT22;28672;49.358;8.780;2022-10-31T08:00:32;10.70;99.90
43047;DHT22;28672;49.358;8.780;2022-10-31T08:03:06;10.90;99.90
43047;DHT22;28672;49.358;8.780;2022-10-31T08:05:32;11.00;99.90
43047;DHT22;28672;49.358;8.780;2022-10-31T08:07:59;11.10;99.90
43047;DHT22;28672;49.358;8.780;2022-10-31T08:10:25;11.10;99.90
43047;DHT22;28672;49.358;8.780;2022-10-31T08:12:59;11.30;99.90
43047;DHT22;28672;49.358;8.780;2022-10-31T08:15:26;11.60;99.90
43047;DHT22;28672;49.358;8.780;2022-10-31T08:17:52;11.80;99.90
43047;DHT22;28672;49.358;8.780;2022-10-31T08:20:18;11.90;99.90
43047;DHT22;28672;49.358;8.780;2022-10-31T08:22:51;11.90;99.90
43047;DHT22;28672;49.358;8.780;2022-10-31T08:25:17;12.00;99.90
43047;DHT22;28672;49.358;8.780;2022-10-31T08:27:42;12.20;99.90
43047;DHT22;28672;49.358;8.780;2022-10-31T08:30:08;12.10;99.90
43047;DHT22;28672;49.358;8.780;2022-10-31T08:32:34;12.00;99.90
43047;DHT22;28672;49.358;8.780;2022-10-31T08:34:59;12.20;99.90
43047;DHT22;28672;49.358;8.780;2022-10-31T08:37:25;12.20;99.90
43047;DHT22;28672;49.358;8.780;2022-10-31T08:39:50;12.20;99.90
43047;DHT22;28672;49.358;8.780;2022-10-31T08:42:16;12.30;99.90
43047;DHT22;28672;49.358;8.780;2022-10-31T08:44:41;12.40;99.90
43047;DHT22;28672;49.358;8.780;2022-10-31T08:47:07;12.50;99.90
43047;DHT22;28672;49.358;8.780;2022-10-31T08:49:32;12.80;99.90
43047;DHT22;28672;49.358;8.780;2022-10-31T08:51:58;12.90;99.90
43047;DHT22;28672;49.358;8.780;2022-10-31T08:54:24;13.00;99.90
43047;DHT22;28672;49.358;8.780;2022-10-31T08:56:54;13.00;99.90
43047;DHT22;28672;49.358;8.780;2022-10-31T08:59:20;13.00;99.90
43047;DHT22;28672;49.358;8.780;2022-10-31T09:01:46;13.20;99.90
43047;DHT22;28672;49.358;8.780;2022-10-31T09:04:11;13.30;99.90
43047;DHT22;28672;49.358;8.780;2022-10-31T09:06:37;13.40;99.90
43047;DHT22;28672;49.358;8.780;2022-10-31T09:09:02;13.50;99.90
43047;DHT22;28672;49.358;8.780;2022-10-31T09:11:30;13.60;99.90
43047;DHT22;28672;49.358;8.780;2022-10-31T09:13:56;13.80;99.90
43047;DHT22;28672;49.358;8.780;2022-10-31T09:16:21;14.00;99.90
43047;DHT22;28672;49.358;8.780;2022-10-31T09:18:47;14.00;99.90
43047;DHT22;28672;49.358;8.780;2022-10-31T09:21:12;14.10;99.90
43047;DHT22;28672;49.358;8.780;2022-10-31T09:23:38;14.30;99.90
43047;DHT22;28672;49.358;8.780;2022-10-31T09:26:04;14.60;99.90
43047;DHT22;28672;49.358;8.780;2022-10-31T09:28:30;14.70;99.90
43047;DHT22;28672;49.358;8.780;2022-10-31T09:30:57;14.80;99.90
43047;DHT22;28672;49.358;8.780;2022-10-31T09:33:22;15.00;99.90
43047;DHT22;28672;49.358;8.780;2022-10-31T09:35:48;15.10;99.90
43047;DHT22;28672;49.358;8.780;2022-10-31T09:38:18;15.20;99.90
43047;DHT22;28672;49.358;8.780;2022-10-31T09:40:46;15.40;99.90
43047;DHT22;28672;49.358;8.780;2022-10-31T09:46:22;15.50;99.90
43047;DHT22;28672;49.358;8.780;2022-10-31T09:51:41;15.70;99.90
43047;DHT22;28672;49.358;8.780;2022-10-31T09:54:27;15.70;99.90
43047;DHT22;28672;49.358;8.780;2022-10-31T09:56:56;16.00;99.90
43047;DHT22;28672;49.358;8.780;2022-10-31T09:59:35;16.00;99.90
43047;DHT22;28672;49.358;8.780;2022-10-31T10:10:26;15.80;99.90
43047;DHT22;28672;49.358;8.780;2022-10-31T10:18:43;16.20;99.90
43047;DHT22;28672;49.358;8.780;2022-10-31T10:21:25;16.20;99.90
43047;DHT22;28672;49.358;8.780;2022-10-31T10:24:11;16.20;99.90
43047;DHT22;28672;49.358;8.780;2022-10-31T10:26:42;16.40;99.90
43047;DHT22;28672;49.358;8.780;2022-10-31T10:31:53;16.80;99.90
43047;DHT22;28672;49.358;8.780;2022-10-31T10:34:33;16.80;99.90
43047;DHT22;28672;49.358;8.780;2022-10-31T10:37:05;16.90;99.90
43047;DHT22;28672;49.358;8.780;2022-10-31T10:39:41;16.80;99.90
43047;DHT22;28672;49.358;8.780;2022-10-31T10:42:14;16.70;99.90
43047;DHT22;28672;49.358;8.780;2022-10-31T10:44:59;16.90;99.90
43047;DHT22;28672;49.358;8.780;2022-10-31T10:47:48;16.90;99.90
43047;DHT22;28672;49.358;8.780;2022-10-31T10:50:17;16.80;99.90
43047;DHT22;28672;49.358;8.780;2022-10-31T10:53:00;16.80;99.90
43047;DHT22;28672;49.358;8.780;2022-10-31T10:55:43;16.80;99.90
43047;DHT22;28672;49.358;8.780;2022-10-31T10:58:11;16.80;99.90
43047;DHT22;28672;49.358;8.780;2022-10-31T11:00:45;16.90;99.90
43047;DHT22;28672;49.358;8.780;2022-10-31T11:03:16;17.10;99.90
43047;DHT22;28672;49.358;8.780;2022-10-31T11:08:11;16.80;99.90
43047;DHT22;28672;49.358;8.780;2022-10-31T11:10:37;16.80;99.90
43047;DHT22;28672;49.358;8.780;2022-10-31T11:15:49;17.00;99.90
43047;DHT22;28672;49.358;8.780;2022-10-31T11:18:26;17.00;99.90
43047;DHT22;28672;49.358;8.780;2022-10-31T11:20:54;17.00;99.90
43047;DHT22;28672;49.358;8.780;2022-10-31T11:23:22;17.20;99.90
43047;DHT22;28672;49.358;8.780;2022-10-31T11:25:58;17.20;99.90
43047;DHT22;28672;49.358;8.780;2022-10-31T11:28:25;17.30;99.90
43047;DHT22;28672;49.358;8.780;2022-10-31T11:31:00;17.50;99.90
43047;DHT22;28672;49.358;8.780;2022-10-31T11:33:30;17.60;99.90
43047;DHT22;28672;49.358;8.780;2022-10-31T11:35:57;17.80;99.90
43047;DHT22;28672;49.358;8.780;2022-10-31T11:38:39;17.90;99.90
43047;DHT22;28672;49.358;8.780;2022-10-31T11:43:37;18.00;99.90
43047;DHT22;28672;49.358;8.780;2022-10-31T11:46:11;18.00;99.90
43047;DHT22;28672;49.358;8.780;2022-10-31T11:48:51;18.20;99.90
43047;DHT22;28672;49.358;8.780;2022-10-31T11:51:25;18.20;99.90
43047;DHT22;28672;49.358;8.780;2022-10-31T11:53:53;18.20;99.90
43047;DHT22;28672;49.358;8.780;2022-10-31T11:56:19;18.20;99.90
43047;DHT22;28672;49.358;8.780;2022-10-31T11:58:55;18.20;99.90
43047;DHT22;28672;49.358;8.780;2022-10-31T12:01:28;18.30;99.90
43047;DHT22;28672;49.358;8.780;2022-10-31T12:04:12;18.50;99.90
43047;DHT22;28672;49.358;8.780;2022-10-31T12:06:40;18.60;99.90
43047;DHT22;28672;49.358;8.780;2022-10-31T12:09:19;18.60;99.90
43047;DHT22;28672;49.358;8.780;2022-10-31T12:17:08;18.60;99.90
43047;DHT22;28672;49.358;8.780;2022-10-31T12:23:03;18.70;99.90
43047;DHT22;28672;49.358;8.780;2022-10-31T12:36:10;18.70;99.90
43047;DHT22;28672;49.358;8.780;2022-10-31T12:38:50;18.80;99.90
43047;DHT22;28672;49.358;8.780;2022-10-31T12:43:57;18.70;99.90
43047;DHT22;28672;49.358;8.780;2022-10-31T12:52:28;18.70;99.90
43047;DHT22;28672;49.358;8.780;2022-10-31T13:00:14;18.60;99.90
43047;DHT22;28672;49.358;8.780;2022-10-31T13:03:14;18.50;99.90
43047;DHT22;28672;49.358;8.780;2022-10-31T13:05:46;18.50;99.90
43047;DHT22;28672;49.358;8.780;2022-10-31T13:10:59;18.60;99.90
43047;DHT22;28672;49.358;8.780;2022-10-31T13:13:38;18.60;99.90
43047;DHT22;28672;49.358;8.780;2022-10-31T13:16:21;18.70;99.90
43047;DHT22;28672;49.358;8.780;2022-10-31T13:18:53;18.70;99.90
43047;DHT22;28672;49.358;8.780;2022-10-31T13:27:59;18.60;99.90
43047;DHT22;28672;49.358;8.780;2022-10-31T13:30:19;18.60;99.90
43047;DHT22;28672;49.358;8.780;2022-10-31T13:33:21;18.60;99.90
43047;DHT22;28672;49.358;8.780;2022-10-31T13:36:14;18.50;99.90
43047;DHT22;28672;49.358;8.780;2022-10-31T13:39:03;18.50;99.90
43047;DHT22;28672;49.358;8.780;2022-10-31T13:42:00;18.40;99.90
43047;DHT22;28672;49.358;8.780;2022-10-31T13:44:28;18.50;99.90
43047;DHT22;28672;49.358;8.780;2022-10-31T13:46:57;18.50;99.90
43047;DHT22;28672;49.358;8.780;2022-10-31T13:52:14;18.60;99.90
43047;DHT22;28672;49.358;8.780;2022-10-31T13:54:45;18.70;99.90
43047;DHT22;28672;49.358;8.780;2022-10-31T13:57:41;18.80;99.90
43047;DHT22;28672;49.358;8.780;2022-10-31T14:02:55;19.20;99.90
43047;DHT22;28672;49.358;8.780;2022-10-31T14:05:25;19.40;99.90
43047;DHT22;28672;49.358;8.780;2022-10-31T14:07:53;19.60;99.90
43047;DHT22;28672;49.358;8.780;2022-10-31T14:10:21;19.70;99.90
43047;DHT22;28672;49.358;8.780;2022-10-31T14:12:49;19.90;99.90
43047;DHT22;28672;49.358;8.780;2022-10-31T14:15:21;19.90;99.90
43047;DHT22;28672;49.358;8.780;2022-10-31T14:17:56;19.90;99.90
43047;DHT22;28672;49.358;8.780;2022-10-31T14:20:34;20.00;99.90
43047;DHT22;28672;49.358;8.780;2022-10-31T14:28:53;19.80;99.90
43047;DHT22;28672;49.358;8.780;2022-10-31T14:31:40;19.80;99.90
43047;DHT22;28672;49.358;8.780;2022-10-31T14:34:35;19.90;99.90
43047;DHT22;28672;49.358;8.780;2022-10-31T14:46:00;19.10;99.90
43047;DHT22;28672;49.358;8.780;2022-10-31T14:51:26;18.60;99.90
43047;DHT22;28672;49.358;8.780;2022-10-31T14:53:55;18.30;99.90
43047;DHT22;28672;49.358;8.780;2022-10-31T14:56:30;18.10;99.90
43047;DHT22;28672;49.358;8.780;2022-10-31T14:59:04;17.90;99.90
43047;DHT22;28672;49.358;8.780;2022-10-31T15:01:36;17.80;99.90
43047;DHT22;28672;49.358;8.780;2022-10-31T15:04:16;17.70;99.90
43047;DHT22;28672;49.358;8.780;2022-10-31T15:06:46;17.50;99.90
43047;DHT22;28672;49.358;8.780;2022-10-31T15:09:29;17.40;99.90
43047;DHT22;28672;49.358;8.780;2022-10-31T15:11:58;17.20;99.90
43047;DHT22;28672;49.358;8.780;2022-10-31T15:14:29;17.00;99.90
43047;DHT22;28672;49.358;8.780;2022-10-31T15:16:57;16.90;99.90
43047;DHT22;28672;49.358;8.780;2022-10-31T15:19:25;16.70;99.90
43047;DHT22;28672;49.358;8.780;2022-10-31T15:21:54;16.60;99.90
43047;DHT22;28672;49.358;8.780;2022-10-31T15:24:24;16.50;99.90
43047;DHT22;28672;49.358;8.780;2022-10-31T15:26:55;16.40;99.90
43047;DHT22;28672;49.358;8.780;2022-10-31T15:29:23;16.30;99.90
43047;DHT22;28672;49.358;8.780;2022-10-31T15:32:01;16.20;99.90
43047;DHT22;28672;49.358;8.780;2022-10-31T15:34:39;16.10;99.90
43047;DHT22;28672;49.358;8.780;2022-10-31T15:37:11;16.10;99.90
43047;DHT22;28672;49.358;8.780;2022-10-31T15:39:37;16.10;99.90
43047;DHT22;28672;49.358;8.780;2022-10-31T15:42:03;16.00;99.90
43047;DHT22;28672;49.358;8.780;2022-10-31T15:44:33;16.00;99.90
43047;DHT22;28672;49.358;8.780;2022-10-31T15:47:15;15.90;99.90
43047;DHT22;28672;49.358;8.780;2022-10-31T15:49:54;15.90;99.90
43047;DHT22;28672;49.358;8.780;2022-10-31T15:52:34;15.90;99.90
43047;DHT22;28672;49.358;8.780;2022-10-31T15:55:03;15.90;99.90
43047;DHT22;28672;49.358;8.780;2022-10-31T15:57:30;15.80;99.90
43047;DHT22;28672;49.358;8.780;2022-10-31T15:59:56;15.80;99.90
43047;DHT22;28672;49.358;8.780;2022-10-31T16:02:26;15.80;99.90
43047;DHT22;28672;49.358;8.780;2022-10-31T16:04:56;15.70;99.90
43047;DHT22;28672;49.358;8.780;2022-10-31T16:07:23;15.70;99.90
43047;DHT22;28672;49.358;8.780;2022-10-31T16:12:20;15.60;99.90
43047;DHT22;28672;49.358;8.780;2022-10-31T16:14:47;15.50;99.90
43047;DHT22;28672;49.358;8.780;2022-10-31T16:17:14;15.50;99.90
43047;DHT22;28672;49.358;8.780;2022-10-31T16:19:48;15.40;99.90
43047;DHT22;28672;49.358;8.780;2022-10-31T16:22:20;15.40;99.90
43047;DHT22;28672;49.358;8.780;2022-10-31T16:24:47;15.40;99.90
43047;DHT22;28672;49.358;8.780;2022-10-31T16:27:20;15.30;99.90
43047;DHT22;28672;49.358;8.780;2022-10-31T16:29:51;15.30;99.90
43047;DHT22;28672;49.358;8.780;2022-10-31T16:37:33;15.10;99.90
43047;DHT22;28672;49.358;8.780;2022-10-31T16:39:59;15.10;99.90
43047;DHT22;28672;49.358;8.780;2022-10-31T16:42:25;15.00;99.90
43047;DHT22;28672;49.358;8.780;2022-10-31T16:44:51;15.00;99.90
43047;DHT22;28672;49.358;8.780;2022-10-31T16:47:17;14.90;99.90
43047;DHT22;28672;49.358;8.780;2022-10-31T16:49:46;14.90;99.90
43047;DHT22;28672;49.358;8.780;2022-10-31T16:52:12;14.80;99.90
43047;DHT22;28672;49.358;8.780;2022-10-31T16:54:38;14.70;99.90
43047;DHT22;28672;49.358;8.780;2022-10-31T16:57:05;14.60;99.90
43047;DHT22;28672;49.358;8.780;2022-10-31T16:59:32;14.50;99.90
43047;DHT22;28672;49.358;8.780;2022-10-31T17:01:59;14.40;99.90
43047;DHT22;28672;49.358;8.780;2022-10-31T17:04:25;14.40;99.90
43047;DHT22;28672;49.358;8.780;2022-10-31T17:06:51;14.30;99.90
43047;DHT22;28672;49.358;8.780;2022-10-31T17:09:16;14.20;99.90
43047;DHT22;28672;49.358;8.780;2022-10-31T17:11:48;14.30;99.90
43047;DHT22;28672;49.358;8.780;2022-10-31T17:14:15;14.20;99.90
43047;DHT22;28672;49.358;8.780;2022-10-31T17:16:41;14.20;99.90
43047;DHT22;28672;49.358;8.780;2022-10-31T17:19:10;14.30;99.90
43047;DHT22;28672;49.358;8.780;2022-10-31T17:21:36;14.30;99.90
43047;DHT22;28672;49.358;8.780;2022-10-31T17:24:02;14.30;99.90
43047;DHT22;28672;49.358;8.780;2022-10-31T17:26:27;14.30;99.90
43047;DHT22;28672;49.358;8.780;2022-10-31T17:28:53;14.30;99.90
43047;DHT22;28672;49.358;8.780;2022-10-31T17:31:27;14.30;99.90
43047;DHT22;28672;49.358;8.780;2022-10-31T17:33:57;14.30;99.90
43047;DHT22;28672;49.358;8.780;2022-10-31T17:36:24;14.30;99.90
43047;DHT22;28672;49.358;8.780;2022-10-31T17:38:49;14.20;99.90
43047;DHT22;28672;49.358;8.780;2022-10-31T17:41:15;14.10;99.90
43047;DHT22;28672;49.358;8.780;2022-10-31T17:43:41;14.10;99.90
43047;DHT22;28672;49.358;8.780;2022-10-31T17:46:07;14.00;99.90
43047;DHT22;28672;49.358;8.780;2022-10-31T17:48:34;14.00;99.90
43047;DHT22;28672;49.358;8.780;2022-10-31T17:51:04;14.00;99.90
43047;DHT22;28672;49.358;8.780;2022-10-31T17:53:32;13.90;99.90
43047;DHT22;28672;49.358;8.780;2022-10-31T17:56:00;13.90;99.90
43047;DHT22;28672;49.358;8.780;2022-10-31T17:58:26;13.80;99.90
43047;DHT22;28672;49.358;8.780;2022-10-31T18:00:51;13.80;99.90